createdAt,value
2022-08-05T00:01:27.705Z,2.22
2022-08-05T00:03:57.123Z,2.70
2022-08-05T00:06:32.399Z,2.60
2022-08-05T00:09:00.793Z,2.90
2022-08-05T00:11:34.511Z,2.63
2022-08-05T00:14:12.588Z,2.92
2022-08-05T00:16:53.107Z,2.80
2022-08-05T00:19:33.337Z,2.77
2022-08-05T00:22:07.814Z,3.05
2022-08-05T00:24:38.656Z,3.85
2022-08-05T00:27:10.403Z,2.85
2022-08-05T00:29:41.255Z,3.28
2022-08-05T00:32:15.408Z,2.97
2022-08-05T00:35:03.727Z,2.70
2022-08-05T00:37:50.906Z,3.03
2022-08-05T00:40:27.004Z,3.30
2022-08-05T00:42:57.442Z,2.75
2022-08-05T00:45:28.339Z,2.72
2022-08-05T00:48:06.235Z,2.85
2022-08-05T00:50:34.013Z,2.70
2022-08-05T00:53:01.122Z,2.55
2022-08-05T00:55:34.098Z,2.40
2022-08-05T00:58:14.256Z,2.42
2022-08-05T01:00:42.234Z,2.83
2022-08-05T01:03:22.191Z,2.70
2022-08-05T01:05:51.233Z,2.70
2022-08-05T01:08:41.598Z,2.53
2022-08-05T01:11:36.759Z,3.13
2022-08-05T01:14:15.442Z,2.67
2022-08-05T01:17:00.085Z,2.80
2022-08-05T01:20:02.124Z,2.78
2022-08-05T01:22:57.396Z,2.47
2022-08-05T01:25:53.260Z,2.83
2022-08-05T01:28:28.204Z,2.85
2022-08-05T01:31:03.403Z,2.90
2022-08-05T01:33:49.239Z,2.50
2022-08-05T01:36:28.058Z,2.60
2022-08-05T01:39:00.102Z,2.30
2022-08-05T01:41:32.383Z,2.53
2022-08-05T01:44:00.885Z,3.03
2022-08-05T01:46:42.792Z,2.47
2022-08-05T01:49:23.817Z,2.78
2022-08-05T01:51:56.471Z,2.57
2022-08-05T01:54:46.074Z,2.33
2022-08-05T01:58:11.342Z,2.80
2022-08-05T02:00:06.379Z,2.22
2022-08-05T02:02:46.563Z,2.45
2022-08-05T02:05:25.195Z,2.70
2022-08-05T02:08:01.316Z,2.80
2022-08-05T02:10:35.254Z,2.88
2022-08-05T02:13:16.325Z,2.40
2022-08-05T02:16:24.387Z,2.65
2022-08-05T02:19:07.157Z,2.40
2022-08-05T02:21:43.256Z,2.47
2022-08-05T02:24:23.328Z,2.53
2022-08-05T02:26:56.706Z,2.67
2022-08-05T02:29:59.233Z,2.55
2022-08-05T02:32:23.938Z,2.27
2022-08-05T02:34:59.088Z,2.67
2022-08-05T02:37:32.544Z,2.67
2022-08-05T02:40:01.270Z,2.75
2022-08-05T02:42:34.264Z,2.88
2022-08-05T02:45:03.926Z,2.22
2022-08-05T02:48:07.702Z,2.70
2022-08-05T02:50:23.966Z,2.85
2022-08-05T02:52:52.299Z,2.83
2022-08-05T02:55:54.471Z,2.63
2022-08-05T02:58:11.547Z,3.27
2022-08-05T03:00:41.607Z,3.28
2022-08-05T03:03:20.525Z,2.63
2022-08-05T03:06:53.762Z,3.10
2022-08-05T03:08:42.748Z,2.88
2022-08-05T03:11:56.586Z,2.55
2022-08-05T03:14:08.036Z,2.75
2022-08-05T03:16:35.838Z,3.10
2022-08-05T03:19:12.790Z,3.30
2022-08-05T03:21:49.528Z,3.20
2022-08-05T03:24:27.529Z,2.90
2022-08-05T03:26:58.658Z,3.08
2022-08-05T03:29:45.762Z,2.90
2022-08-05T03:32:15.406Z,3.10
2022-08-05T03:34:51.085Z,3.30
2022-08-05T03:37:21.003Z,3.87
2022-08-05T03:40:01.220Z,3.67
2022-08-05T03:42:32.893Z,3.47
2022-08-05T03:45:22.071Z,3.50
2022-08-05T03:47:50.208Z,3.25
2022-08-05T03:50:17.494Z,3.90
2022-08-05T03:55:50.797Z,4.05
2022-08-05T03:56:11.015Z,3.92
2022-08-05T03:58:42.660Z,3.30
2022-08-05T04:01:13.913Z,3.65
2022-08-05T04:03:56.956Z,3.30
2022-08-05T04:06:34.964Z,2.97
2022-08-05T04:09:05.942Z,3.17
2022-08-05T04:11:50.503Z,3.50
2022-08-05T04:14:19.797Z,3.60
2022-08-05T04:16:58.920Z,4.60
2022-08-05T04:19:27.418Z,3.33
2022-08-05T04:22:09.918Z,3.53
2022-08-05T04:24:52.268Z,3.90
2022-08-05T04:27:42.225Z,3.15
2022-08-05T04:30:09.580Z,3.23
2022-08-05T04:32:36.728Z,3.20
2022-08-05T04:35:05.892Z,3.35
2022-08-05T04:38:01.029Z,2.70
2022-08-05T04:40:20.079Z,3.28
2022-08-05T04:42:47.033Z,3.47
2022-08-05T04:45:31.079Z,3.20
2022-08-05T04:48:16.535Z,3.17
2022-08-05T04:51:03.813Z,3.00
2022-08-05T04:53:38.846Z,3.15
2022-08-05T04:56:33.693Z,3.20
2022-08-05T04:58:56.594Z,2.92
2022-08-05T05:02:04.040Z,2.90
2022-08-05T05:04:10.583Z,2.85
2022-08-05T05:06:44.200Z,3.05
2022-08-05T05:09:17.326Z,3.17
2022-08-05T05:11:53.901Z,3.38
2022-08-05T05:14:31.545Z,3.10
2022-08-05T05:17:00.584Z,3.55
2022-08-05T05:19:36.969Z,3.58
2022-08-05T05:22:23.673Z,4.13
2022-08-05T05:24:58.411Z,3.20
2022-08-05T05:27:44.712Z,3.75
2022-08-05T05:30:29.093Z,3.45
2022-08-05T05:33:00.465Z,3.33
2022-08-05T05:35:31.614Z,4.03
2022-08-05T05:38:09.509Z,4.00
2022-08-05T05:40:48.392Z,3.95
2022-08-05T05:43:22.079Z,3.50
2022-08-05T05:46:10.648Z,3.53
2022-08-05T05:48:44.245Z,3.27
2022-08-05T05:51:15.699Z,3.58
2022-08-05T05:53:57.482Z,2.97
2022-08-05T05:56:34.145Z,3.72
2022-08-05T05:59:07.445Z,2.95
2022-08-05T06:01:40.397Z,2.67
2022-08-05T06:04:12.673Z,3.13
2022-08-05T06:06:47.744Z,2.70
2022-08-05T06:09:24.856Z,2.70
2022-08-05T06:12:01.035Z,2.70
2022-08-05T06:14:30.617Z,2.70
2022-08-05T06:16:58.363Z,3.00
2022-08-05T06:19:34.701Z,2.08
2022-08-05T06:22:06.918Z,2.05
2022-08-05T06:24:35.123Z,2.20
2022-08-05T06:27:04.062Z,2.60
2022-08-05T06:29:49.240Z,2.17
2022-08-05T06:32:25.171Z,2.10
2022-08-05T06:34:56.678Z,3.20
2022-08-05T06:37:56.203Z,2.15
2022-08-05T06:40:13.997Z,2.47
2022-08-05T06:42:45.868Z,1.88
2022-08-05T06:45:20.808Z,1.98
2022-08-05T06:48:47.060Z,1.60
2022-08-05T06:50:35.600Z,1.60
2022-08-05T06:53:11.745Z,1.50
2022-08-05T06:55:49.554Z,1.83
2022-08-05T06:58:29.669Z,1.77
2022-08-05T07:01:04.210Z,2.13
2022-08-05T07:03:33.199Z,2.13
2022-08-05T07:06:06.033Z,1.10
2022-08-05T07:08:47.813Z,1.25
2022-08-05T07:11:22.235Z,1.67
2022-08-05T07:14:20.143Z,1.83
2022-08-05T07:17:59.468Z,1.60
2022-08-05T07:20:16.664Z,1.23
2022-08-05T07:22:28.858Z,1.80
2022-08-05T07:24:59.553Z,1.20
2022-08-05T07:27:58.720Z,1.35
2022-08-05T07:30:38.563Z,1.30
2022-08-05T07:33:10.166Z,1.90
2022-08-05T07:35:55.735Z,1.52
2022-08-05T07:38:33.509Z,1.55
2022-08-05T07:41:35.067Z,1.15
2022-08-05T07:43:58.317Z,1.42
2022-08-05T07:46:27.654Z,0.88
2022-08-05T07:49:03.027Z,1.05
2022-08-05T07:51:48.929Z,1.15
2022-08-05T07:54:23.285Z,1.10
2022-08-05T07:57:01.662Z,1.00
2022-08-05T07:59:41.425Z,0.80
2022-08-05T08:02:15.656Z,1.10
2022-08-05T08:04:49.517Z,0.70
2022-08-05T08:07:23.059Z,1.00
2022-08-05T08:09:52.909Z,1.15
2022-08-05T08:12:37.350Z,0.88
2022-08-05T08:15:09.638Z,0.90
2022-08-05T08:17:44.004Z,0.60
2022-08-05T08:20:42.449Z,0.40
2022-08-05T08:23:03.736Z,0.80
2022-08-05T08:25:59.117Z,0.57
2022-08-05T08:28:36.566Z,0.60
2022-08-05T08:31:08.065Z,0.70
2022-08-05T08:33:38.118Z,0.43
2022-08-05T08:36:29.470Z,0.95
2022-08-05T08:38:55.684Z,0.60
2022-08-05T08:41:26.132Z,0.90
2022-08-05T08:45:23.474Z,0.70
2022-08-05T08:47:03.724Z,1.00
2022-08-05T08:50:18.080Z,0.60
2022-08-05T08:52:38.882Z,0.75
2022-08-05T08:55:13.265Z,0.68
2022-08-05T08:57:46.451Z,0.50
2022-08-05T09:00:25.022Z,0.57
2022-08-05T09:02:54.458Z,0.40
2022-08-05T09:05:39.038Z,0.70
2022-08-05T09:08:09.819Z,0.60
2022-08-05T09:10:37.041Z,0.50
2022-08-05T09:13:07.467Z,0.60
2022-08-05T09:15:37.080Z,0.80
2022-08-05T09:18:10.268Z,0.90
2022-08-05T09:20:43.589Z,0.77
2022-08-05T09:23:21.761Z,0.75
2022-08-05T09:26:20.564Z,0.60
2022-08-05T09:28:49.434Z,0.80
2022-08-05T09:31:43.729Z,0.70
2022-08-05T09:34:09.669Z,0.50
2022-08-05T09:36:55.945Z,0.60
2022-08-05T09:39:39.465Z,0.73
2022-08-05T09:42:20.247Z,0.73
2022-08-05T09:44:56.542Z,0.75
2022-08-05T09:47:36.523Z,0.70
2022-08-05T09:50:37.315Z,0.90
2022-08-05T09:53:05.240Z,0.85
2022-08-05T09:55:58.551Z,0.73
2022-08-05T09:58:24.343Z,0.60
2022-08-05T10:00:59.005Z,0.47
2022-08-05T10:03:56.776Z,0.45
2022-08-05T10:06:15.587Z,0.60
2022-08-05T10:08:43.401Z,0.45
2022-08-05T10:11:20.840Z,0.85
2022-08-05T10:13:49.205Z,0.63
2022-08-05T10:16:32.296Z,0.75
2022-08-05T10:19:08.531Z,0.50
2022-08-05T10:21:40.466Z,1.05
2022-08-05T10:24:13.757Z,0.50
2022-08-05T10:26:52.021Z,0.60
2022-08-05T10:29:24.023Z,1.23
2022-08-05T10:32:54.349Z,0.63
2022-08-05T10:35:01.066Z,0.95
2022-08-05T10:37:40.073Z,0.80
2022-08-05T10:40:47.646Z,0.63
2022-08-05T10:43:41.551Z,0.60
2022-08-05T10:46:10.728Z,0.50
2022-08-05T10:48:56.551Z,0.60
2022-08-05T10:51:28.575Z,0.63
2022-08-05T10:54:01.965Z,0.40
2022-08-05T10:56:49.289Z,0.70
2022-08-05T11:00:02.414Z,0.60
2022-08-05T11:02:38.422Z,1.08
2022-08-05T11:05:09.471Z,0.60
2022-08-05T11:08:02.494Z,1.17
2022-08-05T11:10:37.292Z,0.50
2022-08-05T11:13:06.599Z,0.65
2022-08-05T11:16:00.406Z,0.70
2022-08-05T11:18:34.102Z,0.50
2022-08-05T11:21:06.494Z,0.60
2022-08-05T11:24:04.788Z,0.40
2022-08-05T11:26:40.466Z,0.50
2022-08-05T11:29:41.041Z,0.47
2022-08-05T11:32:27.486Z,0.60
2022-08-05T11:34:55.484Z,0.70
2022-08-05T11:38:28.578Z,0.68
2022-08-05T11:41:13.929Z,0.88
2022-08-05T11:44:06.417Z,0.60
2022-08-05T11:47:09.176Z,0.50
2022-08-05T11:49:25.041Z,0.60
2022-08-05T11:51:57.502Z,0.47
2022-08-05T11:54:34.915Z,0.40
2022-08-05T11:57:08.372Z,0.45
2022-08-05T11:59:41.416Z,0.30
2022-08-05T12:02:24.269Z,0.40
2022-08-05T12:05:00.970Z,0.40
2022-08-05T12:08:07.981Z,0.68
2022-08-05T12:10:24.896Z,0.60
2022-08-05T12:13:15.928Z,0.55
2022-08-05T12:15:45.335Z,0.97
2022-08-05T12:18:32.854Z,0.68
2022-08-05T12:21:15.160Z,0.55
2022-08-05T12:23:58.418Z,0.43
2022-08-05T12:26:44.163Z,0.40
2022-08-05T12:29:25.325Z,0.60
2022-08-05T12:31:55.191Z,0.63
2022-08-05T12:34:26.833Z,0.50
2022-08-05T12:36:56.031Z,0.70
2022-08-05T12:39:37.328Z,0.60
2022-08-05T12:42:17.916Z,0.33
2022-08-05T12:44:45.946Z,0.57
2022-08-05T12:47:26.712Z,0.57
2022-08-05T12:50:04.596Z,0.50
2022-08-05T12:52:38.836Z,0.75
2022-08-05T12:55:25.900Z,0.80
2022-08-05T12:58:50.346Z,0.57
2022-08-05T13:02:01.734Z,0.88
2022-08-05T13:03:34.652Z,0.52
2022-08-05T13:06:12.176Z,0.82
2022-08-05T13:08:39.990Z,1.00
2022-08-05T13:11:07.993Z,0.50
2022-08-05T13:14:04.698Z,0.60
2022-08-05T13:16:29.846Z,0.82
2022-08-05T13:18:58.732Z,0.60
2022-08-05T13:21:48.051Z,0.80
2022-08-05T13:24:36.388Z,0.88
2022-08-05T13:27:10.937Z,0.73
2022-08-05T13:29:38.380Z,0.80
2022-08-05T13:32:33.020Z,0.70
2022-08-05T13:35:01.274Z,0.60
2022-08-05T13:37:34.589Z,0.80
2022-08-05T13:40:16.739Z,1.08
2022-08-05T13:42:49.801Z,0.77
2022-08-05T13:45:22.700Z,0.73
2022-08-05T13:48:09.411Z,0.50
2022-08-05T13:50:45.137Z,0.80
2022-08-05T13:53:15.966Z,0.70
2022-08-05T13:55:49.322Z,0.50
2022-08-05T13:58:37.355Z,0.82
2022-08-05T14:01:06.793Z,0.97
2022-08-05T14:03:34.399Z,0.68
2022-08-05T14:06:26.489Z,0.80
2022-08-05T14:08:48.430Z,0.80
2022-08-05T14:11:20.227Z,0.77
2022-08-05T14:14:13.591Z,0.80
2022-08-05T14:16:51.339Z,1.02
2022-08-05T14:19:22.339Z,0.70
2022-08-05T14:22:10.099Z,0.70
2022-08-05T14:24:40.139Z,0.50
2022-08-05T14:27:17.466Z,0.63
2022-08-05T14:29:51.415Z,0.50
2022-08-05T14:32:28.024Z,0.75
2022-08-05T14:34:56.974Z,0.80
2022-08-05T14:37:42.175Z,0.60
2022-08-05T14:40:14.248Z,0.60
2022-08-05T14:42:44.349Z,0.73
2022-08-05T14:45:11.786Z,0.50
2022-08-05T14:48:03.669Z,0.60
2022-08-05T14:50:45.367Z,0.52
2022-08-05T14:53:15.949Z,0.87
2022-08-05T14:55:43.047Z,0.98
2022-08-05T14:58:11.819Z,0.82
2022-08-05T15:00:59.725Z,0.60
2022-08-05T15:03:34.158Z,0.50
2022-08-05T15:06:15.033Z,0.60
2022-08-05T15:09:01.370Z,1.00
2022-08-05T15:11:52.388Z,0.70
2022-08-05T15:14:35.704Z,0.90
2022-08-05T15:17:09.885Z,0.63
2022-08-05T15:19:56.474Z,0.60
2022-08-05T15:22:26.955Z,0.73
2022-08-05T15:24:59.191Z,1.42
2022-08-05T15:27:26.603Z,0.98
2022-08-05T15:29:59.737Z,0.75
2022-08-05T15:32:28.570Z,0.98
2022-08-05T15:34:56.689Z,0.80
2022-08-05T15:38:08.616Z,0.88
2022-08-05T15:41:04.709Z,0.80
2022-08-05T15:43:12.616Z,0.60
2022-08-05T15:46:12.908Z,1.17
2022-08-05T15:49:09.805Z,0.82
2022-08-05T15:52:12.859Z,0.68
2022-08-05T15:55:06.355Z,0.60
2022-08-05T15:57:35.137Z,0.70
2022-08-05T16:00:04.227Z,1.00
2022-08-05T16:02:31.986Z,1.20
2022-08-05T16:04:59.848Z,0.80
2022-08-05T16:07:53.799Z,0.70
2022-08-05T16:10:25.274Z,0.73
2022-08-05T16:13:23.908Z,1.08
2022-08-05T16:16:00.026Z,0.90
2022-08-05T16:20:03.505Z,1.10
2022-08-05T16:22:10.660Z,1.15
2022-08-05T16:24:39.930Z,0.70
2022-08-05T16:27:09.084Z,0.90
2022-08-05T16:29:37.008Z,0.82
2022-08-05T16:32:09.684Z,0.55
2022-08-05T16:34:39.300Z,0.88
2022-08-05T16:38:02.655Z,0.95
2022-08-05T16:40:04.584Z,0.63
2022-08-05T16:42:57.759Z,0.95
2022-08-05T16:46:06.635Z,0.88
2022-08-05T16:48:25.591Z,0.80
2022-08-05T16:50:53.833Z,1.05
2022-08-05T16:53:22.505Z,0.70
2022-08-05T16:55:50.648Z,0.70
2022-08-05T16:58:19.805Z,0.75
2022-08-05T17:00:48.202Z,0.70
2022-08-05T17:03:20.313Z,0.75
2022-08-05T17:05:53.676Z,0.68
2022-08-05T17:08:35.841Z,0.65
2022-08-05T17:11:04.155Z,0.82
2022-08-05T17:13:44.427Z,1.05
2022-08-05T17:16:37.854Z,0.50
2022-08-05T17:19:09.605Z,0.73
2022-08-05T17:21:39.561Z,0.60
2022-08-05T17:24:30.085Z,0.63
2022-08-05T17:27:02.875Z,0.73
2022-08-05T17:29:34.110Z,0.52
2022-08-05T17:32:11.267Z,0.70
2022-08-05T17:34:42.068Z,0.70
2022-08-05T17:37:27.257Z,0.68
2022-08-05T17:39:57.505Z,1.00
2022-08-05T17:42:30.166Z,0.60
2022-08-05T17:45:10.098Z,1.15
2022-08-05T17:47:52.980Z,0.73
2022-08-05T17:50:28.420Z,0.75
2022-08-05T17:53:02.033Z,1.00
2022-08-05T17:55:38.239Z,0.70
2022-08-05T17:58:32.739Z,1.05
2022-08-05T18:00:59.989Z,1.13
2022-08-05T18:03:58.612Z,0.98
2022-08-05T18:06:16.195Z,0.95
2022-08-05T18:08:52.709Z,1.00
2022-08-05T18:11:23.772Z,1.10
2022-08-05T18:13:52.527Z,0.85
2022-08-05T18:18:01.117Z,0.85
2022-08-05T18:20:55.040Z,0.73
2022-08-05T18:24:22.602Z,0.95
2022-08-05T18:27:19.647Z,1.02
2022-08-05T18:29:53.506Z,0.90
2022-08-05T18:32:21.950Z,1.10
2022-08-05T18:34:55.845Z,1.00
2022-08-05T18:37:34.133Z,0.80
2022-08-05T18:40:31.096Z,0.70
2022-08-05T18:42:58.076Z,0.75
2022-08-05T18:45:41.777Z,0.90
2022-08-05T18:48:11.288Z,0.90
2022-08-05T18:52:03.136Z,1.13
2022-08-05T18:53:53.784Z,0.90
2022-08-05T18:56:21.674Z,0.80
2022-08-05T18:59:43.994Z,1.30
2022-08-05T19:02:27.997Z,0.70
2022-08-05T19:06:05.969Z,0.63
2022-08-05T19:07:57.141Z,0.88
2022-08-05T19:10:26.690Z,1.08
2022-08-05T19:12:56.829Z,0.93
2022-08-05T19:15:56.906Z,1.13
2022-08-05T19:18:13.604Z,0.90
2022-08-05T19:20:52.270Z,0.73
2022-08-05T19:24:04.480Z,0.88
2022-08-05T19:26:08.582Z,1.15
2022-08-05T19:28:42.010Z,0.70
2022-08-05T19:31:13.522Z,0.70
2022-08-05T19:33:48.412Z,1.25
2022-08-05T19:36:27.074Z,1.25
2022-08-05T19:39:02.360Z,0.70
2022-08-05T19:41:34.756Z,1.33
2022-08-05T19:44:19.250Z,1.13
2022-08-05T19:46:46.676Z,0.80
2022-08-05T19:49:17.280Z,1.23
2022-08-05T19:52:04.863Z,0.90
2022-08-05T19:54:57.655Z,1.00
2022-08-05T19:57:47.445Z,1.17
2022-08-05T20:00:14.956Z,1.30
2022-08-05T20:02:41.896Z,1.10
2022-08-05T20:05:16.481Z,1.25
2022-08-05T20:07:59.392Z,1.10
2022-08-05T20:10:26.537Z,1.00
2022-08-05T20:12:54.982Z,0.82
2022-08-05T20:15:52.035Z,1.25
2022-08-05T20:18:32.813Z,0.98
2022-08-05T20:21:00.070Z,0.68
2022-08-05T20:23:39.652Z,0.93
2022-08-05T20:26:15.320Z,0.80
2022-08-05T20:29:06.720Z,1.38
2022-08-05T20:31:57.974Z,1.40
2022-08-05T20:34:25.442Z,1.27
2022-08-05T20:36:52.400Z,1.47
2022-08-05T20:39:19.708Z,1.95
2022-08-05T20:42:40.413Z,1.00
2022-08-05T20:45:12.889Z,1.10
2022-08-05T20:47:40.257Z,1.00
2022-08-05T20:50:08.237Z,1.20
2022-08-05T20:52:41.348Z,1.45
2022-08-05T20:56:02.752Z,2.08
2022-08-05T20:57:57.153Z,1.20
2022-08-05T21:00:56.742Z,1.20
2022-08-05T21:03:24.067Z,0.73
2022-08-05T21:06:47.594Z,1.30
2022-08-05T21:09:15.960Z,1.25
2022-08-05T21:12:06.969Z,1.35
2022-08-05T21:14:59.669Z,0.82
2022-08-05T21:17:27.119Z,0.90
2022-08-05T21:19:55.791Z,1.20
2022-08-05T21:22:26.305Z,1.10
2022-08-05T21:24:54.914Z,1.00
2022-08-05T21:27:25.531Z,0.77
2022-08-05T21:29:58.335Z,0.77
2022-08-05T21:32:29.256Z,1.25
2022-08-05T21:35:58.286Z,0.90
2022-08-05T21:38:26.950Z,1.13
2022-08-05T21:40:54.195Z,0.98
2022-08-05T21:43:24.755Z,1.13
2022-08-05T21:45:56.794Z,1.17
2022-08-05T21:48:39.722Z,0.90
2022-08-05T21:52:15.385Z,1.10
2022-08-05T21:53:59.478Z,1.52
2022-08-05T21:56:32.800Z,1.47
2022-08-05T21:59:24.105Z,1.25
2022-08-05T22:01:54.802Z,1.20
2022-08-05T22:04:25.783Z,1.10
2022-08-05T22:06:53.033Z,1.30
2022-08-05T22:09:22.266Z,1.20
2022-08-05T22:11:49.402Z,0.95
2022-08-05T22:14:37.514Z,1.30
2022-08-05T22:17:06.441Z,1.10
2022-08-05T22:20:02.937Z,1.10
2022-08-05T22:22:27.658Z,1.20
2022-08-05T22:25:20.922Z,1.10
2022-08-05T22:28:09.915Z,0.98
2022-08-05T22:31:08.455Z,1.10
2022-08-05T22:33:57.025Z,1.08
2022-08-05T22:36:25.284Z,1.43
2022-08-05T22:38:54.331Z,1.13
2022-08-05T22:41:26.326Z,0.98
2022-08-05T22:44:09.368Z,1.30
2022-08-05T22:46:48.674Z,1.05
2022-08-05T22:50:26.859Z,0.90
2022-08-05T22:53:49.796Z,1.10
2022-08-05T22:56:18.033Z,1.02
2022-08-05T22:59:03.209Z,1.30
2022-08-05T23:02:03.887Z,1.50
2022-08-05T23:08:36.179Z,1.67
2022-08-05T23:11:19.557Z,1.10
2022-08-05T23:14:39.551Z,1.23
2022-08-05T23:17:34.871Z,1.48
2022-08-05T23:20:15.567Z,1.20
2022-08-05T23:22:44.022Z,2.17
2022-08-05T23:25:17.080Z,1.50
2022-08-05T23:27:58.037Z,1.15
2022-08-05T23:30:40.086Z,1.08
2022-08-05T23:33:16.155Z,1.10
2022-08-05T23:35:57.401Z,1.40
2022-08-05T23:38:26.161Z,1.20
2022-08-05T23:41:00.030Z,1.00
2022-08-05T23:43:37.396Z,1.30
2022-08-05T23:46:21.381Z,1.30
2022-08-05T23:49:00.326Z,1.23
2022-08-05T23:51:52.491Z,1.30
2022-08-05T23:54:29.956Z,1.30
2022-08-05T23:57:04.030Z,1.50
